Hallum, Netherlands
Current Conditions -  °F | °C
As of 10:25 PM on Thursday 23 Oct 2014 (Local Time) from EHLW Reporting Station
Haze Haze  
Wind Chill: 55°   Ceiling: 2200
Heat Index: 55°   Visibility: 5mi
Dew Point: 52°   Wind: 14mph
Humidity: 88%   Direction: 200°SSW
Pressure: 30.09"   Gusts: NA
Location:  53.31°N, 5.78°E
Report Text: EHLW 232025Z AUTO 20012KT 8000 BR FEW010 SCT015 BKN022 13/11 Q1019 WHT
Loading
Personal Weather Stations






























Interactive Weather Map
Tropical Storm Tracking
New forecast layout! Learn more

10-Day Weather Forecast

Advertisements
Track Severe Weather on mobile